Time;durP1;ratioP1;P1;durP2;ratioP2;P2;SDS_P1;SDS_P2;PMS_P1;PMS_P2;Temp;Humidity;BMP_temperature;BMP_pressure;BME280_temperature;BME280_humidity;BME280_pressure;Samples;Min_cycle;Max_cycle;Signal;HPM_P1;HPM_P2
2024/04/17 00:02:16;;;;;;;1.70;1.70;;;;;;;17.05;71.96;95606.38;5234296;27;20161;-61
2024/04/17 00:04:43;;;;;;;1.63;1.63;;;;;;;17.41;71.87;95654.38;5231511;27;20035;-61
2024/04/17 00:07:10;;;;;;;1.42;1.42;;;;;;;16.91;74.48;95651.56;5232593;27;20541;-61
2024/04/17 00:09:36;;;;;;;1.50;1.50;;;;;;;17.17;73.83;95641.94;5233034;27;20035;-61
2024/04/17 00:12:04;;;;;;;1.70;1.70;;;;;;;17.31;73.27;95647.13;5235558;27;20031;-62
2024/04/17 00:14:32;;;;;;;1.50;1.50;;;;;;;17.40;72.55;95647.22;5233834;27;20043;-62
2024/04/17 00:16:59;;;;;;;1.60;1.60;;;;;;;17.43;72.48;95643.53;5234627;27;20077;-61
2024/04/17 00:19:26;;;;;;;1.60;1.60;;;;;;;17.35;72.58;95639.38;5233330;27;20007;-61
2024/04/17 00:21:53;;;;;;;1.60;1.60;;;;;;;17.41;72.25;95646.78;5232892;27;20003;-61
2024/04/17 00:24:20;;;;;;;1.60;1.60;;;;;;;17.45;72.07;95643.91;5233023;27;20007;-62
2024/04/17 00:26:47;;;;;;;1.50;1.50;;;;;;;17.46;72.02;95635.06;5234252;27;20557;-63
2024/04/17 00:29:13;;;;;;;1.67;1.67;;;;;;;17.51;71.76;95625.31;5232549;27;20078;-61
2024/04/17 00:31:40;;;;;;;1.77;1.77;;;;;;;17.44;71.86;95619.91;5249258;27;20016;-61
2024/04/17 00:34:07;;;;;;;1.60;1.60;;;;;;;17.32;71.79;95603.91;5264604;27;20022;-62
2024/04/17 00:36:34;;;;;;;1.65;1.65;;;;;;;17.41;71.89;95624.38;5267469;27;20220;-63
2024/04/17 00:39:03;;;;;;;1.40;1.40;;;;;;;17.43;71.11;95626.75;5266689;27;20024;-61
2024/04/17 00:41:30;;;;;;;1.42;1.42;;;;;;;17.34;71.37;95632.25;5244859;27;20484;-60
2024/04/17 00:43:57;;;;;;;1.55;1.55;;;;;;;17.30;71.29;95645.53;5272716;27;20365;-61
2024/04/17 00:46:24;;;;;;;1.70;1.70;;;;;;;16.57;70.92;95515.97;5267311;27;20034;-62
2024/04/17 00:48:50;;;;;;;1.58;1.58;;;;;;;17.16;71.63;95618.00;5265924;27;20018;-60
2024/04/17 00:51:18;;;;;;;1.60;1.60;;;;;;;17.08;71.61;95611.06;5267656;27;20470;-60
2024/04/17 00:53:45;;;;;;;1.42;1.42;;;;;;;16.99;71.46;95591.38;5267652;27;20021;-60
2024/04/17 00:56:12;;;;;;;1.52;1.52;;;;;;;16.50;71.94;95544.13;5234461;27;20026;-61
2024/04/17 00:58:39;;;;;;;1.40;1.40;;;;;;;16.55;73.58;95602.28;5243737;27;20021;-60
2024/04/17 01:01:06;;;;;;;1.60;1.60;;;;;;;16.51;73.87;95584.84;5266099;27;20003;-60
2024/04/17 01:03:33;;;;;;;1.42;1.42;;;;;;;16.68;73.05;95570.78;5266516;27;20007;-61
2024/04/17 01:06:00;;;;;;;1.50;1.50;;;;;;;16.63;73.51;95562.94;5264840;27;20043;-61
2024/04/17 01:08:27;;;;;;;1.55;1.55;;;;;;;16.39;74.13;95554.81;5266922;27;20006;-61
2024/04/17 01:10:58;;;;;;;1.40;1.40;;;;;;;16.27;75.17;95569.53;5266758;27;20080;-62
2024/04/17 01:13:25;;;;;;;1.45;1.45;;;;;;;16.34;74.66;95574.91;5265056;27;20007;-61
2024/04/17 01:15:59;;;;;;;1.25;1.25;;;;;;;16.33;74.28;95578.94;5266744;27;20010;-62
2024/04/17 01:18:26;;;;;;;1.33;1.33;;;;;;;15.85;74.73;95536.44;5266499;27;20003;-61
2024/04/17 01:20:54;;;;;;;1.27;1.27;;;;;;;16.04;75.99;95571.81;5244882;27;20018;-62
2024/04/17 01:23:21;;;;;;;1.27;1.27;;;;;;;15.90;75.89;95559.00;5232707;27;20035;-63
2024/04/17 01:25:50;;;;;;;1.52;1.52;;;;;;;16.19;75.43;95576.56;5231353;27;19999;-62
2024/04/17 01:28:18;;;;;;;1.40;1.40;;;;;;;15.79;75.21;95538.97;5233317;27;20478;-61
2024/04/17 01:30:44;;;;;;;1.50;1.50;;;;;;;16.13;76.24;95608.25;5225734;27;20355;-61
2024/04/17 01:33:11;;;;;;;1.50;1.50;;;;;;;16.05;77.46;95584.53;5201477;27;20018;-60
2024/04/17 01:35:38;;;;;;;1.30;1.30;;;;;;;15.90;78.51;95578.56;5233203;27;20050;-61
2024/04/17 01:38:05;;;;;;;1.20;1.20;;;;;;;15.88;79.28;95571.84;5233252;27;20057;-62
2024/04/17 01:40:32;;;;;;;1.35;1.35;;;;;;;15.85;79.97;95564.34;5233594;27;20640;-62
2024/04/17 01:42:58;;;;;;;1.20;1.20;;;;;;;15.76;80.65;95573.34;5233318;27;20007;-61
2024/04/17 01:45:25;;;;;;;1.20;1.20;;;;;;;15.04;84.48;95580.34;5233042;27;20011;-61
2024/04/17 01:47:52;;;;;;;1.38;1.38;;;;;;;14.82;86.66;95571.72;5231649;27;20011;-63
2024/04/17 01:50:28;;;;;;;1.23;1.23;;;;;;;14.73;86.08;95528.94;5232253;27;20026;-64
2024/04/17 01:52:54;;;;;;;1.20;1.20;;;;;;;15.23;85.12;95573.91;5233060;27;20018;-62
2024/04/17 01:55:21;;;;;;;1.40;1.40;;;;;;;15.40;84.11;95572.72;5219615;27;20015;-62
2024/04/17 01:57:48;;;;;;;1.30;1.30;;;;;;;15.47;83.47;95566.97;5232995;27;20018;-61
2024/04/17 02:00:15;;;;;;;1.27;1.27;;;;;;;14.11;83.36;95334.19;5231924;27;20022;-60
2024/04/17 02:02:42;;;;;;;1.40;1.40;;;;;;;15.58;83.69;95573.06;5233356;27;20017;-60
2024/04/17 02:05:09;;;;;;;1.27;1.27;;;;;;;15.54;82.67;95561.19;5232303;27;20019;-63
2024/04/17 02:07:35;;;;;;;1.20;1.20;;;;;;;15.19;80.80;95483.94;5231021;27;20177;-61
2024/04/17 02:10:02;;;;;;;1.40;1.40;;;;;;;15.61;80.19;95555.44;5231422;27;20019;-61
2024/04/17 02:12:30;;;;;;;1.30;1.30;;;;;;;15.02;80.63;95536.16;5230793;27;20028;-61
2024/04/17 02:14:56;;;;;;;1.17;1.17;;;;;;;15.51;80.22;95542.53;5231591;27;20011;-61
2024/04/17 02:17:23;;;;;;;1.38;1.38;;;;;;;15.17;79.57;95481.59;5232403;27;20339;-61
2024/04/17 02:19:50;;;;;;;1.50;1.50;;;;;;;15.55;79.34;95537.66;5231367;27;20483;-61
2024/04/17 02:22:17;;;;;;;1.35;1.35;;;;;;;15.59;79.50;95538.31;5232664;27;20487;-61
2024/04/17 02:24:44;;;;;;;1.50;1.50;;;;;;;15.63;78.63;95539.03;5231512;27;20097;-60
2024/04/17 02:27:10;;;;;;;1.40;1.40;;;;;;;15.57;78.98;95529.59;5232459;27;20035;-60
2024/04/17 02:29:37;;;;;;;1.20;1.20;;;;;;;15.43;79.00;95516.03;5231615;27;20043;-60
2024/04/17 02:32:05;;;;;;;1.38;1.38;;;;;;;15.51;79.03;95528.56;5235736;27;20284;-60
2024/04/17 02:34:31;;;;;;;1.30;1.30;;;;;;;15.64;78.25;95526.63;5233563;26;20487;-62
2024/04/17 02:36:58;;;;;;;1.33;1.33;;;;;;;15.31;79.93;95508.34;5235655;27;20017;-60
2024/04/17 02:39:25;;;;;;;1.40;1.40;;;;;;;15.32;80.57;95518.28;5233744;27;20035;-60
2024/04/17 02:41:52;;;;;;;1.30;1.30;;;;;;;15.52;79.68;95534.94;5234884;27;20051;-60
2024/04/17 02:44:19;;;;;;;1.30;1.30;;;;;;;15.39;80.60;95534.88;5234522;27;20509;-60
2024/04/17 02:46:46;;;;;;;1.40;1.40;;;;;;;15.47;79.85;95533.47;5234526;27;20043;-60
2024/04/17 02:49:13;;;;;;;1.30;1.30;;;;;;;15.44;79.86;95527.97;5232135;27;20488;-60
2024/04/17 02:51:39;;;;;;;1.40;1.40;;;;;;;15.46;80.22;95515.16;5233724;27;20022;-61
2024/04/17 02:54:06;;;;;;;1.30;1.30;;;;;;;15.26;79.52;95522.81;5232770;27;22124;-60
2024/04/17 02:56:33;;;;;;;1.23;1.23;;;;;;;15.21;79.93;95509.41;5233355;27;20408;-60
2024/04/17 02:59:00;;;;;;;1.20;1.20;;;;;;;14.60;80.44;95441.66;5234071;27;20021;-61
2024/04/17 03:01:26;;;;;;;1.30;1.30;;;;;;;14.53;80.79;95447.38;5235633;27;20043;-61
2024/04/17 03:03:53;;;;;;;1.20;1.20;;;;;;;15.05;80.05;95515.00;5234077;27;20019;-60
2024/04/17 03:06:20;;;;;;;1.23;1.23;;;;;;;15.07;79.79;95506.97;5235461;27;20018;-61
2024/04/17 03:08:47;;;;;;;1.40;1.40;;;;;;;14.98;80.15;95512.38;5233480;27;20010;-60
2024/04/17 03:11:14;;;;;;;1.20;1.20;;;;;;;14.88;80.58;95507.84;5235270;27;20018;-62
2024/04/17 03:13:41;;;;;;;1.20;1.20;;;;;;;14.04;81.51;95403.94;5232099;27;20331;-62
2024/04/17 03:16:08;;;;;;;1.20;1.20;;;;;;;14.79;81.53;95510.47;5234851;27;20011;-61
2024/04/17 03:18:35;;;;;;;1.30;1.30;;;;;;;14.49;81.83;95480.13;5234308;27;20588;-60
2024/04/17 03:21:02;;;;;;;1.30;1.30;;;;;;;14.89;81.37;95521.34;5234904;27;20003;-60
2024/04/17 03:23:29;;;;;;;1.30;1.30;;;;;;;14.90;81.30;95524.94;5234937;27;20046;-60
2024/04/17 03:25:57;;;;;;;1.27;1.27;;;;;;;14.82;81.80;95532.69;5234832;27;20003;-60
2024/04/17 03:28:25;;;;;;;1.38;1.38;;;;;;;14.82;81.87;95526.31;5234256;27;20026;-60
2024/04/17 03:30:52;;;;;;;1.30;1.30;;;;;;;14.65;82.19;95516.38;5234158;27;20564;-60
2024/04/17 03:33:19;;;;;;;1.10;1.10;;;;;;;14.50;83.35;95506.75;5232515;27;20092;-61
2024/04/17 03:35:57;;;;;;;1.30;1.30;;;;;;;14.71;83.20;95531.38;5228171;27;20015;-62
2024/04/17 03:38:25;;;;;;;1.13;1.13;;;;;;;14.19;82.84;95433.06;5233919;27;20003;-63
2024/04/17 03:40:53;;;;;;;1.20;1.20;;;;;;;14.78;82.56;95515.25;5232915;27;20007;-62
2024/04/17 03:43:21;;;;;;;1.20;1.20;;;;;;;14.86;81.98;95510.28;5231396;27;20382;-61
2024/04/17 03:45:48;;;;;;;1.30;1.30;;;;;;;14.81;81.80;95508.03;5234319;27;20008;-61
2024/04/17 03:48:15;;;;;;;1.40;1.40;;;;;;;14.93;81.86;95515.69;5231919;27;20003;-60
2024/04/17 03:50:42;;;;;;;1.30;1.30;;;;;;;14.94;81.61;95511.69;5233763;27;20077;-60
2024/04/17 03:53:09;;;;;;;1.20;1.20;;;;;;;14.75;81.11;95459.59;5232037;27;20078;-62
2024/04/17 03:55:36;;;;;;;1.20;1.20;;;;;;;14.80;80.83;95467.44;5233736;27;20459;-61
2024/04/17 03:58:03;;;;;;;1.40;1.40;;;;;;;15.04;80.85;95517.00;5231366;27;20007;-60
2024/04/17 04:00:30;;;;;;;1.30;1.30;;;;;;;15.02;80.48;95513.06;5233352;27;20007;-60
2024/04/17 04:02:57;;;;;;;1.40;1.40;;;;;;;14.95;80.62;95518.84;5233211;27;20007;-61
2024/04/17 04:05:24;;;;;;;1.40;1.40;;;;;;;15.07;80.82;95518.94;5234996;27;20015;-60
2024/04/17 04:07:51;;;;;;;1.23;1.23;;;;;;;14.89;81.20;95481.56;5233319;27;20117;-60
2024/04/17 04:10:18;;;;;;;1.40;1.40;;;;;;;15.18;80.44;95524.22;5233737;27;20014;-63
2024/04/17 04:12:45;;;;;;;1.30;1.30;;;;;;;15.24;79.84;95530.06;5232773;27;20310;-60
2024/04/17 04:15:12;;;;;;;1.35;1.35;;;;;;;14.90;80.56;95494.25;5232901;27;20014;-60
2024/04/17 04:17:39;;;;;;;1.27;1.27;;;;;;;15.17;80.08;95526.22;5232752;27;20011;-60
2024/04/17 04:20:06;;;;;;;1.35;1.35;;;;;;;15.20;80.32;95530.16;5231193;27;20019;-62
2024/04/17 04:22:33;;;;;;;1.27;1.27;;;;;;;15.16;80.59;95529.44;5234282;27;20022;-60
2024/04/17 04:25:00;;;;;;;1.30;1.30;;;;;;;15.24;81.20;95519.69;5232999;27;20081;-61
2024/04/17 04:27:27;;;;;;;1.30;1.30;;;;;;;14.37;80.62;95372.19;5234088;27;20466;-63
2024/04/17 04:29:54;;;;;;;1.25;1.25;;;;;;;15.49;80.71;95519.84;5232098;27;20031;-61
2024/04/17 04:32:20;;;;;;;1.20;1.20;;;;;;;15.55;79.78;95529.28;5234075;27;20031;-61
2024/04/17 04:34:47;;;;;;;1.30;1.30;;;;;;;15.67;79.57;95519.38;5230567;27;20255;-61
2024/04/17 04:37:15;;;;;;;1.50;1.50;;;;;;;15.58;80.18;95522.81;5234390;27;20003;-62
2024/04/17 04:39:42;;;;;;;1.33;1.33;;;;;;;15.47;79.54;95480.47;5232466;27;20015;-61
2024/04/17 04:42:09;;;;;;;1.35;1.35;;;;;;;15.87;79.26;95512.41;5234091;27;20007;-61
2024/04/17 04:44:36;;;;;;;1.35;1.35;;;;;;;15.64;78.52;95462.44;5233236;27;20011;-60
2024/04/17 04:47:03;;;;;;;1.40;1.40;;;;;;;15.79;77.81;95451.66;5234708;27;20051;-62
2024/04/17 04:49:30;;;;;;;1.50;1.50;;;;;;;16.42;77.13;95520.38;5233268;27;20003;-62
2024/04/17 04:51:57;;;;;;;1.40;1.40;;;;;;;16.48;75.12;95496.28;5234771;27;20007;-63
2024/04/17 04:54:24;;;;;;;1.40;1.40;;;;;;;16.95;74.76;95517.97;5232390;27;20043;-60
2024/04/17 04:56:51;;;;;;;1.40;1.40;;;;;;;17.17;73.67;95513.22;5232183;27;20007;-60
2024/04/17 04:59:18;;;;;;;1.55;1.55;;;;;;;17.34;73.13;95528.69;5231913;27;20347;-62
2024/04/17 05:01:45;;;;;;;1.70;1.70;;;;;;;17.50;71.13;95475.34;5233492;27;20765;-59
2024/04/17 05:04:12;;;;;;;1.58;1.58;;;;;;;17.97;70.25;95521.66;5229827;27;20867;-60
2024/04/17 05:06:40;;;;;;;1.80;1.80;;;;;;;18.22;69.02;95503.94;5233433;27;20030;-61
2024/04/17 05:09:07;;;;;;;1.70;1.70;;;;;;;18.22;68.42;95492.72;5231981;27;20007;-61
2024/04/17 05:11:34;;;;;;;1.75;1.75;;;;;;;18.27;68.08;95483.72;5232735;27;20014;-61
2024/04/17 05:14:01;;;;;;;1.80;1.80;;;;;;;18.33;68.33;95481.88;5229408;27;20474;-61
2024/04/17 05:16:28;;;;;;;1.65;1.65;;;;;;;18.30;68.16;95504.44;5229646;27;20010;-61
2024/04/17 05:18:55;;;;;;;1.98;1.98;;;;;;;18.48;68.20;95498.97;5229479;27;20007;-61
2024/04/17 05:21:23;;;;;;;1.98;1.98;;;;;;;18.22;68.00;95492.72;5230926;27;20225;-61
2024/04/17 05:23:50;;;;;;;1.80;1.80;;;;;;;18.49;68.95;95490.13;5228294;27;20027;-60
2024/04/17 05:26:17;;;;;;;1.88;1.88;;;;;;;18.53;69.27;95476.72;5229780;27;20365;-61
2024/04/17 05:28:44;;;;;;;1.98;1.98;;;;;;;18.63;69.19;95472.72;5228694;27;20011;-61
2024/04/17 05:31:11;;;;;;;1.80;1.80;;;;;;;18.43;70.74;95480.72;5229222;27;20007;-61
2024/04/17 05:33:38;;;;;;;1.80;1.80;;;;;;;17.22;72.75;95383.94;5220112;27;20003;-63
2024/04/17 05:36:05;;;;;;;1.90;1.90;;;;;;;17.96;72.82;95468.88;5230890;27;20003;-61
2024/04/17 05:38:32;;;;;;;1.88;1.88;;;;;;;18.13;72.78;95470.22;5231422;27;20414;-62
2024/04/17 05:40:59;;;;;;;1.80;1.80;;;;;;;18.48;72.21;95471.69;5229547;27;20018;-62
2024/04/17 05:43:26;;;;;;;1.80;1.80;;;;;;;18.42;70.65;95439.13;5263537;26;20009;-61
2024/04/17 05:45:53;;;;;;;1.95;1.95;;;;;;;18.16;71.14;95393.66;5259347;27;20037;-61
2024/04/17 05:48:20;;;;;;;1.77;1.77;;;;;;;18.60;70.70;95442.81;5262875;27;20002;-64
2024/04/17 05:50:47;;;;;;;1.90;1.90;;;;;;;19.05;70.12;95465.38;5256407;27;20039;-60
2024/04/17 05:53:14;;;;;;;1.90;1.90;;;;;;;18.97;69.44;95446.47;5251923;27;20080;-64
2024/04/17 05:55:41;;;;;;;2.30;2.30;;;;;;;18.98;67.94;95403.97;5261420;27;20016;-64
2024/04/17 05:58:08;;;;;;;1.90;1.90;;;;;;;19.65;67.75;95462.09;5263313;27;19999;-61
2024/04/17 06:00:37;;;;;;;2.03;2.03;;;;;;;19.49;66.57;95416.19;5259752;27;20349;-67
2024/04/17 06:03:04;;;;;;;2.00;2.00;;;;;;;19.40;67.59;95469.56;5260553;27;20781;-60
2024/04/17 06:05:31;;;;;;;2.03;2.03;;;;;;;19.58;67.46;95463.94;5259631;27;20007;-58
2024/04/17 06:07:58;;;;;;;2.00;2.00;;;;;;;18.86;68.35;95378.81;5260332;27;20015;-61
2024/04/17 06:10:25;;;;;;;2.15;2.15;;;;;;;18.92;68.78;95414.22;5260821;27;20351;-63
2024/04/17 06:12:52;;;;;;;2.00;2.00;;;;;;;19.09;68.73;95426.75;5264537;27;20006;-61
2024/04/17 06:15:19;;;;;;;1.90;1.90;;;;;;;18.79;71.94;95469.69;5260271;27;20022;-62
2024/04/17 06:17:47;;;;;;;1.75;1.75;;;;;;;18.88;71.59;95472.50;5265303;27;20002;-60
2024/04/17 06:20:14;;;;;;;1.90;1.90;;;;;;;18.09;73.72;95399.53;5261734;27;20006;-62
2024/04/17 06:22:45;;;;;;;1.83;1.83;;;;;;;18.19;73.62;95408.75;5262194;27;20024;-61
2024/04/17 06:25:12;;;;;;;2.10;2.10;;;;;;;18.44;74.05;95440.22;5259604;27;20007;-68
2024/04/17 06:27:39;;;;;;;1.83;1.83;;;;;;;18.58;73.04;95419.25;5261652;27;20002;-66
2024/04/17 06:30:07;;;;;;;1.83;1.83;;;;;;;18.98;72.47;95448.84;5261116;27;20043;-62
2024/04/17 06:32:33;;;;;;;1.90;1.90;;;;;;;19.12;71.76;95442.66;5261015;27;20605;-63
2024/04/17 06:35:01;;;;;;;2.00;2.00;;;;;;;18.70;71.06;95326.56;5259826;27;20011;-67
2024/04/17 06:37:28;;;;;;;2.20;2.20;;;;;;;19.39;70.52;95403.38;5263100;27;20532;-64
2024/04/17 06:39:55;;;;;;;2.20;2.20;;;;;;;18.46;67.91;95207.84;5262821;27;20014;-66
2024/04/17 06:42:22;;;;;;;2.17;2.17;;;;;;;20.61;66.82;95431.97;5264533;27;20014;-65
2024/04/17 06:44:48;;;;;;;2.10;2.10;;;;;;;20.61;66.05;95426.34;5262763;27;20017;-62
2024/04/17 06:47:15;;;;;;;2.05;2.05;;;;;;;20.89;65.64;95436.22;5265861;27;19998;-63
2024/04/17 06:49:42;;;;;;;2.28;2.28;;;;;;;20.94;65.60;95432.75;5263729;27;20013;-61
2024/04/17 06:52:09;;;;;;;2.65;2.55;;;;;;;20.86;64.92;95437.16;5262439;27;20007;-60
2024/04/17 06:54:36;;;;;;;2.17;2.17;;;;;;;20.60;64.98;95357.22;5264615;27;20006;-61
2024/04/17 06:57:03;;;;;;;2.13;2.13;;;;;;;21.25;63.35;95433.22;5263320;27;20030;-62
2024/04/17 06:59:30;;;;;;;2.20;2.20;;;;;;;20.84;64.84;95377.75;5264042;27;20002;-65
2024/04/17 07:01:57;;;;;;;2.30;2.30;;;;;;;19.90;66.93;95338.13;5262059;27;20017;-65
2024/04/17 07:04:24;;;;;;;2.20;2.20;;;;;;;20.99;64.51;95367.38;5256652;27;20030;-70
2024/04/17 07:06:51;;;;;;;2.10;2.10;;;;;;;21.33;64.37;95413.91;5244585;27;20077;-62
2024/04/17 07:09:18;;;;;;;2.20;2.20;;;;;;;21.72;63.78;95415.53;5263702;27;20007;-66
2024/04/17 07:11:45;;;;;;;2.10;2.10;;;;;;;21.18;65.31;95408.25;5256099;27;20003;-64
2024/04/17 07:14:12;;;;;;;2.30;2.30;;;;;;;21.64;63.96;95412.28;5245305;27;20085;-65
2024/04/17 07:16:38;;;;;;;2.28;2.28;;;;;;;21.67;63.61;95405.66;5257992;27;20026;-62
2024/04/17 07:19:05;;;;;;;2.40;2.35;;;;;;;20.98;65.51;95393.19;5264634;27;20080;-64
2024/04/17 07:21:32;;;;;;;2.03;2.03;;;;;;;21.46;64.17;95412.44;5263552;27;20512;-65
2024/04/17 07:23:59;;;;;;;2.60;2.50;;;;;;;21.82;63.27;95406.53;5282089;27;20058;-67
2024/04/17 07:26:26;;;;;;;2.30;2.30;;;;;;;21.71;63.79;95389.38;5265504;27;20009;-63
2024/04/17 07:28:53;;;;;;;2.38;2.30;;;;;;;21.97;62.77;95384.75;5264791;27;20044;-59
2024/04/17 07:31:20;;;;;;;2.25;2.25;;;;;;;21.43;63.08;95334.50;5263207;27;20006;-65
2024/04/17 07:33:48;;;;;;;2.10;2.10;;;;;;;22.28;62.03;95382.25;5264271;27;20010;-64
2024/04/17 07:36:15;;;;;;;2.60;2.50;;;;;;;22.40;61.29;95377.53;5257379;27;20500;-64
2024/04/17 07:38:45;;;;;;;2.35;2.35;;;;;;;22.63;60.86;95373.88;5263166;27;20504;-64
2024/04/17 07:41:12;;;;;;;2.45;2.35;;;;;;;22.48;60.79;95372.31;5265421;27;20342;-60
2024/04/17 07:43:43;;;;;;;2.78;2.67;;;;;;;22.46;61.33;95370.72;5264100;27;20021;-61
2024/04/17 07:46:10;;;;;;;2.63;2.53;;;;;;;22.53;61.18;95375.22;5247764;27;20010;-64
2024/04/17 07:48:37;;;;;;;2.70;2.60;;;;;;;22.09;60.26;95320.88;5259991;27;20088;-61
2024/04/17 07:51:05;;;;;;;2.35;2.28;;;;;;;22.69;60.08;95363.44;5258019;27;20014;-64
2024/04/17 07:53:31;;;;;;;2.38;2.33;;;;;;;23.10;59.02;95355.78;5265901;27;20014;-64
2024/04/17 07:56:01;;;;;;;2.50;2.40;;;;;;;23.52;57.25;95353.31;5254062;27;20009;-64
2024/04/17 07:58:29;;;;;;;2.75;2.65;;;;;;;23.75;56.15;95355.09;5265871;27;20025;-63
2024/04/17 08:00:56;;;;;;;2.63;2.53;;;;;;;23.95;55.36;95355.03;5265993;27;19998;-60
2024/04/17 08:03:23;;;;;;;2.83;2.72;;;;;;;24.27;54.14;95353.84;5266593;27;20007;-60
2024/04/17 08:05:51;;;;;;;2.80;2.70;;;;;;;24.18;53.86;95331.41;5266655;27;20002;-63
2024/04/17 08:08:18;;;;;;;2.60;2.50;;;;;;;24.43;53.10;95344.72;5265412;27;20007;-61
2024/04/17 08:10:45;;;;;;;2.60;2.50;;;;;;;24.25;53.34;95333.75;5264045;27;20017;-59
2024/04/17 08:13:15;;;;;;;2.95;2.85;;;;;;;24.53;52.37;95323.44;5264625;27;20042;-61
2024/04/17 08:15:43;;;;;;;3.10;3.00;;;;;;;25.00;51.54;95322.75;5266128;27;20009;-62
2024/04/17 08:18:11;;;;;;;3.33;3.22;;;;;;;25.16;50.55;95285.25;5266469;27;20413;-61
2024/04/17 08:20:38;;;;;;;3.35;3.25;;;;;;;25.23;49.42;95273.41;5266807;27;20472;-65
2024/04/17 08:23:05;;;;;;;3.35;3.25;;;;;;;25.58;48.76;95280.75;5264415;27;20469;-64
2024/04/17 08:25:32;;;;;;;3.22;3.13;;;;;;;25.38;48.20;95222.22;5264569;27;20025;-67
2024/04/17 08:27:59;;;;;;;3.50;3.40;;;;;;;26.06;47.73;95315.47;5264197;27;20022;-67
2024/04/17 08:30:27;;;;;;;3.22;3.13;;;;;;;26.39;46.79;95298.44;5263742;27;20009;-62
2024/04/17 08:32:54;;;;;;;3.53;3.42;;;;;;;26.50;46.18;95298.44;5265279;27;20002;-61
2024/04/17 08:35:21;;;;;;;3.67;3.58;;;;;;;26.50;46.09;95287.88;5265818;27;20002;-60
2024/04/17 08:37:48;;;;;;;3.40;3.30;;;;;;;26.35;45.77;95264.63;5264319;27;20016;-65
2024/04/17 08:40:16;;;;;;;3.58;3.47;;;;;;;26.29;46.21;95280.09;5264390;27;20015;-65
2024/04/17 08:42:48;;;;;;;3.50;3.40;;;;;;;26.13;45.70;95280.91;5266446;27;20408;-65
2024/04/17 08:45:20;;;;;;;3.22;3.13;;;;;;;25.91;46.19;95280.84;5265955;27;20003;-66
2024/04/17 08:48:02;;;;;;;3.40;3.30;;;;;;;25.53;46.82;95244.66;5265358;27;20035;-67
2024/04/17 08:50:31;;;;;;;3.17;3.08;;;;;;;25.55;46.59;95248.53;5263970;27;20039;-68
2024/04/17 08:52:59;;;;;;;3.25;3.15;;;;;;;25.72;46.56;95266.34;5265361;27;20039;-67
2024/04/17 08:55:27;;;;;;;3.60;3.50;;;;;;;25.39;46.77;95211.66;5266368;27;20002;-64
2024/04/17 08:57:56;;;;;;;3.22;3.13;;;;;;;25.82;46.45;95255.53;5263629;27;20010;-68
2024/04/17 09:00:26;;;;;;;3.33;3.22;;;;;;;25.61;46.51;95285.44;5263855;27;20002;-60
2024/04/17 09:02:58;;;;;;;3.30;3.20;;;;;;;25.31;46.88;95245.34;5265272;27;20021;-61
2024/04/17 09:05:27;;;;;;;3.15;3.05;;;;;;;25.30;47.75;95267.25;5265146;27;20014;-59
2024/04/17 09:07:54;;;;;;;3.35;3.25;;;;;;;25.51;47.47;95235.91;5264062;27;20042;-61
2024/04/17 09:10:21;;;;;;;3.60;3.50;;;;;;;24.48;49.72;95168.50;5264481;27;20002;-60
2024/04/17 09:12:48;;;;;;;3.13;3.03;;;;;;;24.43;52.84;95210.91;5263515;27;20006;-59
2024/04/17 09:15:16;;;;;;;2.80;2.70;;;;;;;24.93;50.59;95212.75;5264601;27;20021;-59
2024/04/17 09:17:43;;;;;;;2.97;2.88;;;;;;;25.48;48.76;95192.34;5265395;27;20006;-64
2024/04/17 09:20:10;;;;;;;3.17;3.08;;;;;;;26.47;46.68;95217.91;5264090;27;20012;-58
2024/04/17 09:22:37;;;;;;;3.35;3.25;;;;;;;27.37;45.69;95211.44;5265716;27;20007;-60
2024/04/17 09:25:16;;;;;;;3.35;3.25;;;;;;;27.23;44.68;95200.34;5263696;27;20646;-63
2024/04/17 09:27:47;;;;;;;3.70;3.60;;;;;;;27.35;44.79;95196.97;5230253;27;20014;-63
2024/04/17 09:30:14;;;;;;;3.30;3.20;;;;;;;27.56;43.97;95200.97;5263974;27;20491;-62
2024/04/17 09:32:44;;;;;;;3.70;3.60;;;;;;;27.23;43.67;95121.53;5265641;27;20034;-63
2024/04/17 09:35:11;;;;;;;4.25;4.15;;;;;;;27.36;43.73;95158.69;5265661;27;20017;-58
2024/04/17 09:37:39;;;;;;;3.80;3.70;;;;;;;27.61;42.95;95183.13;5264724;27;20020;-61
2024/04/17 09:40:08;;;;;;;3.80;3.70;;;;;;;27.47;43.07;95189.16;5263201;27;20417;-62
2024/04/17 09:42:37;;;;;;;3.92;3.83;;;;;;;27.09;42.94;95190.88;5265593;27;20018;-58
2024/04/17 09:45:04;;;;;;;3.80;3.70;;;;;;;27.16;42.68;95178.94;5265039;27;20038;-65
2024/04/17 09:47:32;;;;;;;3.78;3.67;;;;;;;27.26;42.47;95171.69;5231229;27;20017;-65
2024/04/17 09:50:02;;;;;;;3.97;3.88;;;;;;;27.24;42.56;95168.56;5258144;27;20006;-61
2024/04/17 09:52:29;;;;;;;3.88;3.78;;;;;;;27.69;42.01;95152.78;5265876;27;20002;-63
2024/04/17 09:54:57;;;;;;;3.85;3.75;;;;;;;27.85;41.74;95108.41;5264943;27;20002;-65
2024/04/17 09:57:24;;;;;;;4.05;3.95;;;;;;;28.43;40.42;95145.91;5264146;27;20021;-61
2024/04/17 09:59:54;;;;;;;4.00;3.90;;;;;;;27.57;40.47;95025.34;5263210;27;20014;-67
2024/04/17 10:02:23;;;;;;;4.15;4.05;;;;;;;28.02;39.96;95101.31;5232017;27;20007;-72
2024/04/17 10:04:52;;;;;;;4.00;3.90;;;;;;;28.20;39.80;95138.91;5284294;27;20069;-68
2024/04/17 10:07:20;;;;;;;4.22;4.13;;;;;;;26.60;39.37;94899.97;5262316;27;20017;-69
2024/04/17 10:09:49;;;;;;;4.07;3.97;;;;;;;27.66;39.83;95108.28;5264473;27;20013;-60
2024/04/17 10:12:17;;;;;;;4.00;3.90;;;;;;;27.56;40.46;95121.31;5262975;27;20014;-64
2024/04/17 10:14:44;;;;;;;4.05;3.95;;;;;;;27.71;40.22;95118.88;5264279;27;20010;-61
2024/04/17 10:17:11;;;;;;;3.78;3.67;;;;;;;25.69;40.40;94889.41;5264610;27;20014;-63
2024/04/17 10:19:56;;;;;;;3.50;3.40;;;;;;;27.00;40.63;95108.72;5271151;26;20164;-60
2024/04/17 10:22:23;;;;;;;3.72;3.63;;;;;;;27.66;39.62;95101.84;5274999;27;20080;-60
2024/04/17 10:24:50;;;;;;;3.72;3.63;;;;;;;27.26;39.62;95026.66;5263753;27;20038;-66
2024/04/17 10:27:21;;;;;;;3.92;3.83;;;;;;;27.11;39.91;95037.59;5265003;27;20034;-66
2024/04/17 10:29:48;;;;;;;3.97;3.88;;;;;;;26.50;40.85;94991.72;5264465;27;20002;-67
2024/04/17 10:32:15;;;;;;;3.42;3.33;;;;;;;26.64;40.43;95013.34;5264877;27;20014;-67
2024/04/17 10:34:46;;;;;;;3.33;3.22;;;;;;;26.59;40.68;95012.06;5264067;27;20034;-62
2024/04/17 10:37:14;;;;;;;3.70;3.60;;;;;;;26.43;40.88;95001.56;5264388;27;20006;-62
2024/04/17 10:39:43;;;;;;;3.67;3.58;;;;;;;27.22;39.80;95046.03;5263399;27;20007;-61
2024/04/17 10:42:15;;;;;;;3.72;3.63;;;;;;;27.17;39.18;95046.88;5264060;27;20442;-75
2024/04/17 10:44:48;;;;;;;3.53;3.42;;;;;;;27.65;39.78;95072.63;5259046;27;20011;-64
2024/04/17 10:47:27;;;;;;;4.10;4.00;;;;;;;27.30;39.00;95004.41;5262770;27;20007;-62
2024/04/17 10:49:58;;;;;;;3.85;3.75;;;;;;;27.69;38.82;95032.50;5260583;27;20007;-67
2024/04/17 10:52:29;;;;;;;3.60;3.50;;;;;;;27.88;nan;95073.97;5264618;27;20081;-66
2024/04/17 10:54:59;;;;;;;4.22;4.13;;;;;;;26.10;38.50;94833.47;5260931;27;20016;-62
2024/04/17 10:57:31;;;;;;;4.10;4.00;;;;;;;27.26;38.56;95023.81;5265347;27;20003;-71
2024/04/17 10:59:59;;;;;;;4.00;3.90;;;;;;;27.75;38.26;95073.84;5265594;27;20077;-65
2024/04/17 11:02:28;;;;;;;3.83;3.72;;;;;;;26.92;39.05;95005.44;5265805;27;20007;-66
2024/04/17 11:04:55;;;;;;;3.67;3.58;;;;;;;27.25;39.61;95061.28;5265396;27;20002;-66
2024/04/17 11:07:23;;;;;;;3.30;3.20;;;;;;;27.06;39.63;95060.38;5265872;27;20488;-72
2024/04/17 11:09:50;;;;;;;3.78;3.67;;;;;;;26.99;39.86;95038.97;5267577;27;19999;-66
2024/04/17 11:12:18;;;;;;;3.67;3.58;;;;;;;26.70;40.63;95043.28;5267417;27;20022;-69
2024/04/17 11:14:46;;;;;;;3.58;3.47;;;;;;;26.78;40.83;95049.16;5264767;27;19998;-69
2024/04/17 11:17:13;;;;;;;3.50;3.40;;;;;;;24.67;41.20;94790.22;5265785;27;20066;-61
2024/04/17 11:19:41;;;;;;;3.33;3.22;;;;;;;26.33;41.59;95059.19;5265824;27;20085;-61
2024/04/17 11:22:14;;;;;;;3.60;3.50;;;;;;;26.43;41.87;95066.13;5268239;27;20007;-62
2024/04/17 11:24:45;;;;;;;3.25;3.15;;;;;;;25.98;41.71;95013.59;5266358;27;20491;-67
2024/04/17 11:27:15;;;;;;;3.22;3.13;;;;;;;26.30;42.26;95069.50;5260004;27;19998;-66
2024/04/17 11:29:46;;;;;;;3.38;3.28;;;;;;;26.56;42.01;95063.47;5250660;27;20043;-69
2024/04/17 11:32:16;;;;;;;3.28;3.17;;;;;;;26.44;42.06;95027.91;5250060;27;20030;-66
2024/04/17 11:34:44;;;;;;;3.63;3.53;;;;;;;26.54;40.81;95009.28;5267708;27;20026;-63
2024/04/17 11:37:13;;;;;;;3.42;3.33;;;;;;;26.82;39.84;95018.44;5265953;27;20013;-66